Time;durP1;ratioP1;P1;durP2;ratioP2;P2;SDS_P1;SDS_P2;PMS_P1;PMS_P2;Temp;Humidity;BMP_temperature;BMP_pressure;BME280_temperature;BME280_humidity;BME280_pressure;Samples;Min_cycle;Max_cycle;Signal;HPM_P1;HPM_P2
2024/04/17 00:04:52;;;;;;;1999.90;999.90;;;;;;;5.23;100.00;101027.91;11284986;26;20352;-65
2024/04/17 00:09:54;;;;;;;1999.90;999.90;;;;;;;5.22;100.00;101032.22;11284956;26;20009;-65
2024/04/17 00:14:57;;;;;;;1999.90;999.90;;;;;;;5.33;100.00;101031.03;11283617;26;19999;-65
2024/04/17 00:19:59;;;;;;;1999.90;999.90;;;;;;;5.17;100.00;101023.75;11284542;26;20381;-64
2024/04/17 00:25:02;;;;;;;1999.90;999.90;;;;;;;5.46;100.00;101019.38;11284856;26;19999;-65
2024/04/17 00:30:05;;;;;;;1999.90;999.90;;;;;;;5.34;100.00;101018.00;11284534;26;19999;-64
2024/04/17 00:35:08;;;;;;;1999.90;999.90;;;;;;;5.06;100.00;101015.47;11283995;26;20461;-65
2024/04/17 00:40:11;;;;;;;1999.90;999.90;;;;;;;4.89;100.00;101026.31;11284003;26;19998;-64
2024/04/17 00:45:14;;;;;;;1999.90;999.90;;;;;;;4.78;100.00;101012.84;11284035;26;20003;-64
2024/04/17 00:50:17;;;;;;;1999.90;999.90;;;;;;;4.71;100.00;101017.38;11283655;26;20017;-64
2024/04/17 00:55:19;;;;;;;1999.90;999.90;;;;;;;4.91;100.00;101018.50;11283812;26;20009;-65
2024/04/17 01:00:22;;;;;;;1999.90;999.90;;;;;;;4.96;100.00;101016.63;11283623;26;20412;-65
2024/04/17 01:05:24;;;;;;;1999.90;999.90;;;;;;;4.89;100.00;101009.91;11283168;26;20003;-65
2024/04/17 01:10:27;;;;;;;1999.90;999.90;;;;;;;4.87;100.00;101012.56;11281324;26;20346;-65
2024/04/17 01:15:29;;;;;;;1999.90;999.90;;;;;;;4.71;100.00;101008.72;11282709;26;20365;-65
2024/04/17 01:20:32;;;;;;;1999.90;999.90;;;;;;;4.96;100.00;101016.63;11280797;26;19999;-65
2024/04/17 01:25:34;;;;;;;1999.90;999.90;;;;;;;4.72;100.00;101013.88;11284656;26;19999;-64
2024/04/17 01:30:37;;;;;;;1999.90;999.90;;;;;;;4.71;100.00;101009.59;11290182;26;20030;-65
2024/04/17 01:35:39;;;;;;;1999.90;999.90;;;;;;;4.97;100.00;101006.19;11289530;26;19999;-65
2024/04/17 01:40:42;;;;;;;1999.90;999.90;;;;;;;4.81;100.00;101000.63;11289531;26;20461;-65
2024/04/17 01:45:48;;;;;;;1999.90;999.90;;;;;;;4.84;100.00;100994.50;11289438;26;20277;-64
2024/04/17 01:50:50;;;;;;;1999.90;999.90;;;;;;;4.79;100.00;100998.97;11289291;26;20034;-65
2024/04/17 01:55:54;;;;;;;1999.90;999.90;;;;;;;4.97;100.00;100998.41;11288914;26;20010;-65
2024/04/17 02:00:56;;;;;;;1999.90;999.90;;;;;;;4.81;100.00;101007.56;11289235;26;19999;-65
2024/04/17 02:05:59;;;;;;;1999.90;999.90;;;;;;;4.76;100.00;100999.09;11288750;26;20010;-64
2024/04/17 02:11:03;;;;;;;1999.90;999.90;;;;;;;4.81;100.00;100997.19;11288671;26;19999;-65
2024/04/17 02:16:06;;;;;;;1999.90;999.90;;;;;;;4.65;100.00;100999.38;11288656;26;20071;-65
2024/04/17 02:21:13;;;;;;;1999.90;999.90;;;;;;;4.72;100.00;101002.66;11288352;26;20014;-64
2024/04/17 02:26:16;;;;;;;1999.90;999.90;;;;;;;4.70;100.00;101005.28;11288420;26;19999;-65
2024/04/17 02:31:18;;;;;;;1999.90;999.90;;;;;;;4.83;100.00;100998.84;11288316;26;20003;-64
2024/04/17 02:36:21;;;;;;;1999.90;999.90;;;;;;;4.98;100.00;101010.50;11287520;26;19998;-64
2024/04/17 02:41:23;;;;;;;1999.90;999.90;;;;;;;4.74;100.00;101008.63;11287854;26;20014;-65
2024/04/17 02:46:26;;;;;;;1999.90;999.90;;;;;;;4.97;100.00;101019.16;11285636;26;20001;-65
2024/04/17 02:51:28;;;;;;;1999.90;999.90;;;;;;;4.90;100.00;101016.81;11287608;26;20396;-65
2024/04/17 02:56:31;;;;;;;1999.90;999.90;;;;;;;5.06;100.00;101014.59;11286914;26;20010;-65
2024/04/17 03:01:33;;;;;;;1999.90;999.90;;;;;;;4.72;100.00;101008.69;11286893;26;20035;-64
2024/04/17 03:06:36;;;;;;;1999.90;999.90;;;;;;;4.78;100.00;101003.31;11285240;26;20477;-65
2024/04/17 03:11:39;;;;;;;1999.90;999.90;;;;;;;4.78;100.00;101005.91;11286786;26;19999;-65
2024/04/17 03:16:41;;;;;;;1999.90;999.90;;;;;;;4.86;100.00;101005.69;11286693;26;19999;-64
2024/04/17 03:21:44;;;;;;;1999.90;999.90;;;;;;;5.12;100.00;101009.22;11286290;26;19999;-65
2024/04/17 03:26:49;;;;;;;1999.90;999.90;;;;;;;5.09;100.00;101009.31;11286300;26;20450;-65
2024/04/17 03:31:52;;;;;;;1999.90;999.90;;;;;;;5.26;100.00;101009.66;11286433;26;20135;-65
2024/04/17 03:36:54;;;;;;;1999.90;999.90;;;;;;;5.10;100.00;101017.06;11285850;26;20007;-64
2024/04/17 03:41:57;;;;;;;1999.90;999.90;;;;;;;4.96;100.00;101021.81;11285499;26;19998;-65
2024/04/17 03:46:59;;;;;;;1999.90;999.90;;;;;;;4.98;100.00;101026.06;11284488;26;20016;-65
2024/04/17 03:52:02;;;;;;;1999.90;999.90;;;;;;;5.06;100.00;101019.78;11285607;26;20078;-65
2024/04/17 03:57:05;;;;;;;1999.90;999.90;;;;;;;5.18;100.00;101025.44;11284759;26;20013;-65
2024/04/17 04:02:07;;;;;;;1999.90;999.90;;;;;;;5.14;100.00;101025.59;11285467;26;20034;-64
2024/04/17 04:07:14;;;;;;;1999.90;999.90;;;;;;;5.32;100.00;101027.59;11285356;26;20013;-65
2024/04/17 04:12:16;;;;;;;1999.90;999.90;;;;;;;5.51;100.00;101027.84;11285611;26;20014;-65
2024/04/17 04:17:19;;;;;;;1999.90;999.90;;;;;;;5.79;100.00;101032.16;11285012;26;20085;-65
2024/04/17 04:22:21;;;;;;;1999.90;999.90;;;;;;;5.47;100.00;101030.63;11284676;26;19999;-65
2024/04/17 04:27:24;;;;;;;1999.90;999.90;;;;;;;5.47;100.00;101028.88;11283033;26;20486;-65
2024/04/17 04:32:26;;;;;;;1999.90;999.90;;;;;;;5.53;100.00;101030.41;11284601;26;20036;-65
2024/04/17 04:37:30;;;;;;;1999.90;999.90;;;;;;;5.56;100.00;101032.91;11284286;26;20331;-64
2024/04/17 04:42:32;;;;;;;1999.90;999.90;;;;;;;5.57;100.00;101038.06;11283598;26;20010;-65
2024/04/17 04:47:35;;;;;;;1999.90;999.90;;;;;;;5.78;100.00;101038.25;11283545;26;19999;-65
2024/04/17 04:52:37;;;;;;;1999.90;999.90;;;;;;;5.84;100.00;101030.25;11283750;26;20003;-65
2024/04/17 04:57:40;;;;;;;1999.90;999.90;;;;;;;5.74;100.00;101037.50;11283986;26;19999;-65
2024/04/17 05:02:42;;;;;;;1999.90;999.90;;;;;;;5.64;100.00;101040.47;11290031;26;20009;-65
2024/04/17 05:07:45;;;;;;;1999.90;999.90;;;;;;;5.60;100.00;101047.50;11290840;26;20003;-65
2024/04/17 05:12:47;;;;;;;1999.90;999.90;;;;;;;5.94;100.00;101046.38;11290652;26;20407;-65
2024/04/17 05:17:50;;;;;;;1999.90;999.90;;;;;;;6.01;100.00;101045.28;11290488;26;20009;-65
2024/04/17 05:22:52;;;;;;;1999.90;999.90;;;;;;;5.95;100.00;101046.31;11290468;26;20010;-65
2024/04/17 05:27:55;;;;;;;1999.90;999.90;;;;;;;6.07;100.00;101045.09;11290836;26;19999;-64
2024/04/17 05:32:57;;;;;;;1999.90;999.90;;;;;;;5.93;100.00;101047.28;11290309;26;19999;-65
2024/04/17 05:38:00;;;;;;;1999.90;999.90;;;;;;;5.93;100.00;101042.06;11289758;26;19999;-65
2024/04/17 05:43:02;;;;;;;1999.90;999.90;;;;;;;5.81;100.00;101045.94;11289300;26;20071;-65
2024/04/17 05:48:05;;;;;;;1999.90;999.90;;;;;;;6.02;100.00;101046.13;11289108;26;20456;-65
2024/04/17 05:53:08;;;;;;;1999.90;999.90;;;;;;;6.21;100.00;101046.34;11289593;26;19999;-65
2024/04/17 05:58:10;;;;;;;1999.90;999.90;;;;;;;6.27;100.00;101057.41;11288885;26;20013;-65
2024/04/17 06:03:13;;;;;;;1999.90;999.90;;;;;;;6.83;100.00;101063.19;11289253;26;19999;-65
2024/04/17 06:08:15;;;;;;;1999.90;999.90;;;;;;;6.70;100.00;101065.41;11286650;26;19998;-65
2024/04/17 06:13:18;;;;;;;1999.90;999.90;;;;;;;6.60;100.00;101069.25;11287100;26;19999;-65
2024/04/17 06:18:20;;;;;;;1999.90;999.90;;;;;;;6.69;100.00;101069.75;11286592;26;20446;-65
2024/04/17 06:23:23;;;;;;;1999.90;999.90;;;;;;;6.90;100.00;101072.47;11288237;26;20076;-65
2024/04/17 06:28:25;;;;;;;1999.90;999.90;;;;;;;7.00;100.00;101060.78;11287489;26;19999;-65
2024/04/17 06:33:28;;;;;;;1999.90;999.90;;;;;;;7.10;100.00;101068.25;11256490;26;20010;-65
2024/04/17 06:38:30;;;;;;;1999.90;999.90;;;;;;;6.74;100.00;101069.59;11285981;26;19999;-65
2024/04/17 06:43:33;;;;;;;1999.90;999.90;;;;;;;6.73;100.00;101069.66;11287602;26;20038;-65
2024/04/17 06:48:36;;;;;;;1999.90;999.90;;;;;;;6.77;100.00;101072.06;11287536;26;20039;-65
2024/04/17 06:53:39;;;;;;;1999.90;999.90;;;;;;;6.95;100.00;101073.13;11281542;20;20006;-65
2024/04/17 06:58:44;;;;;;;1999.90;999.90;;;;;;;7.11;100.00;101078.63;11361254;26;19998;-65
2024/04/17 07:03:46;;;;;;;1999.90;999.90;;;;;;;6.69;100.00;101074.09;11362656;26;20010;-65
2024/04/17 07:08:49;;;;;;;1999.90;999.90;;;;;;;7.08;100.00;101078.72;11362214;26;20489;-65
2024/04/17 07:13:51;;;;;;;1999.90;999.90;;;;;;;7.15;100.00;101074.13;11360498;26;20009;-65
2024/04/17 07:18:54;;;;;;;1999.90;999.90;;;;;;;7.38;100.00;101063.66;11360306;26;20407;-65
2024/04/17 07:23:56;;;;;;;1999.90;999.90;;;;;;;8.12;100.00;101071.06;11304042;26;20007;-65
2024/04/17 07:28:59;;;;;;;1999.90;999.90;;;;;;;8.26;100.00;101065.22;11359971;26;20193;-65
2024/04/17 07:34:02;;;;;;;1999.90;999.90;;;;;;;9.16;100.00;101053.41;11354235;26;19998;-66
2024/04/17 07:39:05;;;;;;;1999.90;999.90;;;;;;;9.72;96.41;101052.44;11319798;26;20002;-66
2024/04/17 07:44:09;;;;;;;1999.90;999.90;;;;;;;9.29;95.45;101046.66;11323116;26;19998;-66
2024/04/17 07:49:12;;;;;;;1999.90;999.90;;;;;;;10.13;88.67;101031.16;11319266;26;20006;-66
2024/04/17 07:54:15;;;;;;;1999.90;999.90;;;;;;;9.55;89.50;101042.81;11327670;26;20009;-66
2024/04/17 07:59:19;;;;;;;1999.90;999.90;;;;;;;10.70;85.77;101030.81;11322045;26;20097;-67
2024/04/17 08:04:22;;;;;;;1999.90;999.90;;;;;;;10.45;85.60;101033.88;11327464;26;19999;-67
2024/04/17 08:09:25;;;;;;;1999.90;999.90;;;;;;;10.85;83.46;101033.53;11296835;26;20394;-68
2024/04/17 08:14:28;;;;;;;1999.90;999.90;;;;;;;9.99;82.65;101034.50;11301215;26;20433;-67
2024/04/17 08:19:34;;;;;;;1999.90;999.90;;;;;;;10.53;81.80;101028.25;11273197;26;20011;-66
2024/04/17 08:24:37;;;;;;;1999.90;999.90;;;;;;;11.18;81.96;101027.34;11288896;26;20452;-66
2024/04/17 08:29:39;;;;;;;1999.90;999.90;;;;;;;9.61;77.96;101026.78;11328124;26;20055;-66
2024/04/17 08:34:42;;;;;;;1999.90;999.90;;;;;;;10.96;78.70;101029.38;11348013;26;19998;-64
2024/04/17 08:39:44;;;;;;;1999.90;999.90;;;;;;;11.63;74.24;101023.00;11334229;26;19999;-65
2024/04/17 08:44:47;;;;;;;1999.90;999.90;;;;;;;12.53;72.50;101022.03;11291412;26;19999;-65
2024/04/17 08:49:50;;;;;;;1999.90;999.90;;;;;;;11.63;72.59;101023.00;11308319;26;19998;-65
2024/04/17 08:54:53;;;;;;;1999.90;999.90;;;;;;;10.16;76.98;101031.00;11333163;26;19998;-65
2024/04/17 08:59:56;;;;;;;1999.90;999.90;;;;;;;9.60;77.22;101029.47;11277941;26;19999;-65
2024/04/17 09:04:59;;;;;;;1999.90;999.90;;;;;;;9.70;78.20;101024.66;11309846;26;20000;-65
2024/04/17 09:10:01;;;;;;;1999.90;999.90;;;;;;;9.55;78.88;101027.13;11353420;26;20402;-65
2024/04/17 09:15:05;;;;;;;1999.90;999.90;;;;;;;11.64;76.78;101022.09;11353988;26;19994;-66
2024/04/17 09:20:07;;;;;;;1999.90;999.90;;;;;;;12.47;67.84;101005.81;11354621;26;19998;-65
2024/04/17 09:25:14;;;;;;;1999.90;999.90;;;;;;;13.86;68.15;101009.06;11351698;26;20006;-65
2024/04/17 09:30:16;;;;;;;1999.90;999.90;;;;;;;14.18;62.27;100992.84;11288962;26;19999;-65
2024/04/17 09:35:19;;;;;;;1999.90;999.90;;;;;;;12.72;66.92;101015.63;11280059;26;20006;-65
2024/04/17 09:40:22;;;;;;;1999.90;999.90;;;;;;;11.25;70.22;101016.44;11281354;26;19999;-65
2024/04/17 09:45:25;;;;;;;1999.90;999.90;;;;;;;10.54;71.29;101019.47;11346305;26;19998;-65
2024/04/17 09:50:28;;;;;;;1999.90;999.90;;;;;;;10.02;71.02;101031.72;11362792;26;19998;-65
2024/04/17 09:55:31;;;;;;;1999.90;999.90;;;;;;;9.06;82.23;101048.63;11362331;26;20002;-65
2024/04/17 10:00:34;;;;;;;1999.90;999.90;;;;;;;8.88;87.34;101065.97;11364662;26;20325;-66
2024/04/17 10:05:37;;;;;;;1999.90;999.90;;;;;;;7.58;96.18;101060.25;11362194;26;20009;-65
2024/04/17 10:10:40;;;;;;;1999.90;999.90;;;;;;;8.60;96.06;101050.72;11362064;26;19998;-65
2024/04/17 10:15:43;;;;;;;1999.90;999.90;;;;;;;9.10;94.17;101054.53;11364167;26;20009;-66
2024/04/17 10:20:45;;;;;;;1999.90;999.90;;;;;;;9.22;94.92;101059.19;11362409;26;20013;-66
2024/04/17 10:25:57;;;;;;;1999.90;999.90;;;;;;;8.42;96.47;101072.38;11363486;26;19998;-65
2024/04/17 10:31:02;;;;;;;1999.90;999.90;;;;;;;8.59;97.83;101075.16;11363172;26;20013;-65
2024/04/17 10:36:06;;;;;;;1999.90;999.90;;;;;;;8.24;100.00;101087.94;11360146;26;19998;-65
2024/04/17 10:41:12;;;;;;;1999.90;999.90;;;;;;;10.21;100.00;101076.09;11360788;26;19998;-66
2024/04/17 10:46:23;;;;;;;1999.90;999.90;;;;;;;10.54;89.56;101071.81;11362605;26;20008;-65
2024/04/17 10:51:26;;;;;;;1999.90;999.90;;;;;;;12.62;87.43;101067.88;11363032;26;20006;-65
2024/04/17 10:56:29;;;;;;;1999.90;999.90;;;;;;;14.23;84.64;101061.00;11360227;26;20573;-65
2024/04/17 11:01:31;;;;;;;1999.90;999.90;;;;;;;12.60;78.76;101059.25;11362753;26;20449;-65
2024/04/17 11:06:36;;;;;;;1999.90;999.90;;;;;;;12.25;75.57;101054.38;11360626;26;20070;-65
2024/04/17 11:11:38;;;;;;;1999.90;999.90;;;;;;;12.47;72.58;101042.56;11362523;26;19998;-65
2024/04/17 11:16:41;;;;;;;1999.90;999.90;;;;;;;12.73;74.64;101044.44;11362192;26;20044;-65
2024/04/17 11:21:50;;;;;;;1999.90;999.90;;;;;;;13.88;69.35;101030.84;11362437;26;19998;-65
2024/04/17 11:26:52;;;;;;;1999.90;999.90;;;;;;;13.93;68.44;101022.66;11361602;26;19998;-66
2024/04/17 11:31:55;;;;;;;1999.90;999.90;;;;;;;13.97;71.89;101028.56;11361483;26;19998;-66
2024/04/17 11:37:06;;;;;;;1999.90;999.90;;;;;;;13.44;65.42;101023.31;11360021;26;20456;-66
2024/04/17 11:42:09;;;;;;;1999.90;999.90;;;;;;;14.89;67.24;101018.69;11359896;26;20002;-66
2024/04/17 11:47:13;;;;;;;1999.90;999.90;;;;;;;12.66;65.95;101030.00;11361552;26;20006;-66
2024/04/17 11:52:16;;;;;;;1999.90;999.90;;;;;;;14.82;68.45;101024.38;11359134;26;19998;-66
2024/04/17 11:57:19;;;;;;;1999.90;999.90;;;;;;;13.14;66.75;101022.53;11360866;26;19998;-66
2024/04/17 12:02:21;;;;;;;1999.90;999.90;;;;;;;12.72;69.19;101020.88;11359491;26;19998;-66
2024/04/17 12:07:24;;;;;;;1999.90;999.90;;;;;;;11.46;71.99;101031.84;11359271;26;20043;-66
2024/04/17 12:12:27;;;;;;;1999.90;999.90;;;;;;;11.21;77.43;101040.28;11359299;26;20009;-66
2024/04/17 12:17:29;;;;;;;1999.90;999.90;;;;;;;9.79;83.66;101058.19;11358629;26;20352;-66
2024/04/17 12:22:32;;;;;;;1999.90;999.90;;;;;;;8.69;84.14;101062.50;11360461;26;20338;-66
2024/04/17 12:27:35;;;;;;;1999.90;999.90;;;;;;;6.85;94.13;101116.88;11358137;26;20441;-66
2024/04/17 12:32:38;;;;;;;1999.90;999.90;;;;;;;6.76;100.00;101122.44;11358469;26;20422;-66
2024/04/17 12:37:40;;;;;;;1999.90;999.90;;;;;;;6.24;100.00;101117.31;11358158;26;20330;-65
2024/04/17 12:42:43;;;;;;;1999.90;999.90;;;;;;;7.26;100.00;101111.00;11359586;26;19998;-66
2024/04/17 12:47:46;;;;;;;1999.90;999.90;;;;;;;6.74;100.00;101108.63;11326794;26;20013;-65
2024/04/17 12:52:49;;;;;;;1999.90;999.90;;;;;;;7.46;100.00;101102.41;11358972;26;19998;-66
2024/04/17 12:57:52;;;;;;;1999.90;999.90;;;;;;;8.07;100.00;101106.03;11356769;26;20026;-66
2024/04/17 13:02:55;;;;;;;1999.90;999.90;;;;;;;9.00;100.00;101095.91;11358665;26;19998;-66
2024/04/17 13:07:57;;;;;;;1999.90;999.90;;;;;;;9.72;98.67;101082.97;11358230;26;20333;-66
2024/04/17 13:13:00;;;;;;;1999.90;999.90;;;;;;;12.16;86.69;101075.94;11358060;26;20010;-65
2024/04/17 13:18:02;;;;;;;1999.90;999.90;;;;;;;10.84;88.22;101069.34;11358157;26;20404;-66
2024/04/17 13:23:05;;;;;;;1999.90;999.90;;;;;;;10.52;82.17;101063.22;11362439;26;20328;-66
2024/04/17 13:28:17;;;;;;;1999.90;999.90;;;;;;;12.43;80.62;101055.03;11365571;26;20430;-66
2024/04/17 13:33:20;;;;;;;1999.90;999.90;;;;;;;11.53;79.95;101052.41;11365626;26;20013;-66
2024/04/17 13:38:23;;;;;;;1999.90;999.90;;;;;;;11.63;76.08;101042.25;11364863;26;19998;-66
2024/04/17 13:43:26;;;;;;;1999.90;999.90;;;;;;;12.11;77.78;101036.84;11362917;26;20003;-66
2024/04/17 13:48:28;;;;;;;1999.90;999.90;;;;;;;14.99;71.87;101030.25;11362650;26;19998;-66
2024/04/17 13:53:31;;;;;;;1999.90;999.90;;;;;;;14.83;72.74;101031.34;11365005;26;19998;-66
2024/04/17 13:58:35;;;;;;;1999.90;999.90;;;;;;;12.34;69.72;101043.31;11362945;26;19998;-66
2024/04/17 14:03:37;;;;;;;1999.90;999.90;;;;;;;10.93;74.63;101036.56;11364263;26;19998;-66
2024/04/17 14:08:40;;;;;;;1999.90;999.90;;;;;;;12.22;73.49;101037.03;11364321;26;19998;-66
2024/04/17 14:13:42;;;;;;;1999.90;999.90;;;;;;;10.13;76.01;101039.00;11362484;26;20006;-66
2024/04/17 14:18:45;;;;;;;1999.90;999.90;;;;;;;12.18;75.54;101021.56;11364069;26;20009;-66
2024/04/17 14:23:48;;;;;;;1999.90;999.90;;;;;;;10.01;77.81;101021.34;11363878;26;20593;-66
2024/04/17 14:28:50;;;;;;;1999.90;999.90;;;;;;;10.28;77.55;101018.22;11363704;26;20009;-66
2024/04/17 14:33:53;;;;;;;1999.90;999.90;;;;;;;11.18;74.89;101012.47;11362309;26;20457;-66
2024/04/17 14:38:55;;;;;;;1999.90;999.90;;;;;;;12.31;69.99;101000.66;11363439;26;19998;-66
2024/04/17 14:43:58;;;;;;;1999.90;999.90;;;;;;;10.24;76.96;101009.69;11363228;26;20449;-66
2024/04/17 14:49:00;;;;;;;1999.90;999.90;;;;;;;9.94;78.87;101006.88;11362984;26;19994;-66
2024/04/17 14:54:03;;;;;;;1999.90;999.90;;;;;;;9.08;83.48;101009.38;11363751;26;19998;-66
2024/04/17 14:59:09;;;;;;;1999.90;999.90;;;;;;;9.43;80.20;101004.19;11361479;26;20022;-66
2024/04/17 15:04:12;;;;;;;1999.90;999.90;;;;;;;9.25;78.33;101001.56;11362404;26;20449;-66
2024/04/17 15:09:16;;;;;;;1999.90;999.90;;;;;;;10.16;79.89;101007.47;11362248;26;20078;-66
2024/04/17 15:14:18;;;;;;;1999.90;999.90;;;;;;;10.28;80.05;100992.88;11362337;26;20456;-66
2024/04/17 15:19:22;;;;;;;1999.90;999.90;;;;;;;9.23;77.71;100995.56;11362179;26;20035;-66
2024/04/17 15:24:24;;;;;;;1999.90;999.90;;;;;;;9.69;82.45;101002.06;11362627;26;20505;-66
2024/04/17 15:29:27;;;;;;;1999.90;999.90;;;;;;;9.91;80.49;100999.19;11362038;26;20067;-66
2024/04/17 15:34:30;;;;;;;1999.90;999.90;;;;;;;8.38;84.20;101009.91;11361602;26;19998;-65
2024/04/17 15:39:33;;;;;;;1999.90;999.90;;;;;;;9.44;84.19;101001.50;11329746;26;20002;-66
2024/04/17 15:44:35;;;;;;;1999.90;999.90;;;;;;;8.92;82.69;100998.78;11361659;26;20009;-66
2024/04/17 15:49:40;;;;;;;1999.90;999.90;;;;;;;8.68;78.96;101004.25;11360593;26;20475;-66
2024/04/17 15:54:42;;;;;;;1999.90;999.90;;;;;;;8.82;80.59;101006.22;11361203;26;20009;-66
2024/04/17 15:59:45;;;;;;;1999.90;999.90;;;;;;;8.99;80.32;101013.25;11361121;26;19998;-65
2024/04/17 16:04:49;;;;;;;1999.90;999.90;;;;;;;9.37;79.88;101007.94;11359157;26;19998;-66
2024/04/17 16:09:51;;;;;;;1999.90;999.90;;;;;;;9.34;79.38;101007.25;11360278;26;19998;-65
2024/04/17 16:14:54;;;;;;;1999.90;999.90;;;;;;;9.28;81.33;101019.72;11359971;26;20352;-66
2024/04/17 16:19:57;;;;;;;1999.90;999.90;;;;;;;9.28;80.91;101017.09;11360421;26;19998;-65
2024/04/17 16:24:59;;;;;;;1999.90;999.90;;;;;;;8.57;80.54;101018.69;11360131;26;20397;-65
2024/04/17 16:30:02;;;;;;;1999.90;999.90;;;;;;;8.89;81.86;101022.44;11359602;26;19998;-65
2024/04/17 16:35:05;;;;;;;1999.90;999.90;;;;;;;9.09;80.90;101026.72;11359434;26;20491;-65
2024/04/17 16:40:08;;;;;;;1999.90;999.90;;;;;;;8.42;82.58;101026.25;11359607;26;19999;-65
2024/04/17 16:45:10;;;;;;;1999.90;999.90;;;;;;;8.40;83.90;101027.25;11359846;26;20016;-65
2024/04/17 16:50:13;;;;;;;1999.90;999.90;;;;;;;8.68;83.23;101019.91;11359280;26;20002;-65
2024/04/17 16:55:16;;;;;;;1999.90;999.90;;;;;;;8.91;84.09;101023.22;11360963;26;20336;-65
2024/04/17 17:00:18;;;;;;;1999.90;999.90;;;;;;;8.74;85.86;101026.59;11366017;26;20063;-65
2024/04/17 17:05:21;;;;;;;1999.90;999.90;;;;;;;8.66;84.93;101018.31;11365710;26;20072;-65
2024/04/17 17:10:23;;;;;;;1999.90;999.90;;;;;;;8.28;83.91;101023.44;11365654;26;19998;-65
2024/04/17 17:15:28;;;;;;;1999.90;999.90;;;;;;;7.68;86.41;101033.81;11364292;26;20013;-65
2024/04/17 17:20:30;;;;;;;1999.90;999.90;;;;;;;8.19;86.88;101033.34;11365734;26;21359;-65
2024/04/17 17:25:39;;;;;;;1999.90;999.90;;;;;;;8.57;85.95;101035.19;11365603;26;19998;-65
2024/04/17 17:30:41;;;;;;;1999.90;999.90;;;;;;;8.15;86.89;101036.16;11365757;26;19998;-65
2024/04/17 17:35:51;;;;;;;1999.90;999.90;;;;;;;8.20;88.28;101044.63;11365144;26;20460;-65
2024/04/17 17:41:03;;;;;;;1999.90;999.90;;;;;;;8.09;85.27;101044.25;11363422;26;19998;-65
2024/04/17 17:46:10;;;;;;;1999.90;999.90;;;;;;;8.04;87.79;101047.06;11364878;26;20001;-65
2024/04/17 17:51:15;;;;;;;1999.90;999.90;;;;;;;7.53;86.39;101049.19;11365176;26;20009;-65
2024/04/17 17:56:19;;;;;;;1999.90;999.90;;;;;;;7.99;89.54;101049.03;11364749;26;19999;-65
2024/04/17 18:01:23;;;;;;;1999.90;999.90;;;;;;;7.96;90.17;101052.59;11364560;26;19998;-65
2024/04/17 18:06:26;;;;;;;1999.90;999.90;;;;;;;8.02;89.29;101046.28;11361500;26;19998;-65
2024/04/17 18:11:29;;;;;;;1999.90;999.90;;;;;;;7.96;89.82;101059.56;11363988;26;19998;-65
2024/04/17 18:16:32;;;;;;;1999.90;999.90;;;;;;;7.80;90.79;101060.22;11363896;26;20006;-65
2024/04/17 18:21:36;;;;;;;1999.90;999.90;;;;;;;7.66;92.30;101070.34;11363252;26;20465;-65
2024/04/17 18:26:39;;;;;;;1999.90;999.90;;;;;;;7.50;94.01;101074.47;11357979;26;20009;-65
2024/04/17 18:31:43;;;;;;;1999.90;999.90;;;;;;;7.41;95.43;101075.69;11361440;26;20013;-65
2024/04/17 18:36:45;;;;;;;1999.90;999.90;;;;;;;7.37;95.79;101081.97;11363478;26;20009;-65
2024/04/17 18:41:48;;;;;;;1999.90;999.90;;;;;;;7.20;99.74;101090.44;11363196;26;20002;-65
2024/04/17 18:46:50;;;;;;;1999.90;999.90;;;;;;;7.38;99.17;101097.53;11330876;26;20004;-65
2024/04/17 18:51:54;;;;;;;1999.90;999.90;;;;;;;7.33;98.67;101101.19;11362642;26;19998;-65
2024/04/17 18:56:57;;;;;;;1999.90;999.90;;;;;;;7.31;100.00;101108.22;11360798;26;20027;-65
2024/04/17 19:02:00;;;;;;;1999.90;999.90;;;;;;;7.35;100.00;101107.22;11361251;26;19998;-65
2024/04/17 19:07:03;;;;;;;1999.90;999.90;;;;;;;7.29;100.00;101108.28;11362543;26;19999;-65
2024/04/17 19:12:05;;;;;;;1999.90;999.90;;;;;;;7.36;100.00;101120.19;11184240;20;20035;-67
2024/04/17 19:17:08;;;;;;;1999.90;999.90;;;;;;;7.21;100.00;101128.56;11138818;26;20004;-67
2024/04/17 19:22:11;;;;;;;1999.90;999.90;;;;;;;7.27;100.00;101130.09;11138971;26;20012;-67
2024/04/17 19:27:13;;;;;;;1999.90;999.90;;;;;;;7.06;100.00;101137.81;11166718;26;20040;-67
2024/04/17 19:32:17;;;;;;;1999.90;999.90;;;;;;;7.07;100.00;101137.75;11138730;26;20032;-68
2024/04/17 19:37:20;;;;;;;1999.90;999.90;;;;;;;6.98;100.00;101147.69;11165765;26;20008;-67
2024/04/17 19:42:22;;;;;;;1999.90;999.90;;;;;;;7.01;100.00;101144.94;11138439;26;20041;-66
2024/04/17 19:47:31;;;;;;;1999.90;999.90;;;;;;;7.16;100.00;101151.34;11164374;26;20078;-67
2024/04/17 19:52:34;;;;;;;1999.90;999.90;;;;;;;6.98;100.00;101152.88;11166057;26;19996;-67
2024/04/17 19:57:37;;;;;;;1999.90;999.90;;;;;;;7.22;100.00;101158.94;11165633;26;20118;-67
2024/04/17 20:02:40;;;;;;;1999.90;999.90;;;;;;;7.06;100.00;101169.91;11138210;26;20478;-67
2024/04/17 20:07:44;;;;;;;1999.90;999.90;;;;;;;6.91;100.00;101173.09;11137440;26;20012;-66
2024/04/17 20:12:47;;;;;;;1999.90;999.90;;;;;;;7.35;100.00;101180.16;11137744;26;20004;-67
2024/04/17 20:17:50;;;;;;;1999.90;999.90;;;;;;;7.14;100.00;101187.84;11137184;26;20071;-66
2024/04/17 20:22:53;;;;;;;1999.90;999.90;;;;;;;7.12;100.00;101191.44;11137169;26;20077;-68
2024/04/17 20:27:56;;;;;;;1999.90;999.90;;;;;;;6.00;100.00;101198.69;11137214;26;20451;-66
2024/04/17 20:32:59;;;;;;;1999.90;999.90;;;;;;;5.98;100.00;101205.69;11135776;26;20035;-66
2024/04/17 20:38:01;;;;;;;1999.90;999.90;;;;;;;6.11;100.00;101207.84;11136892;26;20342;-66
2024/04/17 20:43:04;;;;;;;1999.90;999.90;;;;;;;6.21;100.00;101215.38;11136398;26;20004;-66
2024/04/17 20:48:07;;;;;;;1999.90;999.90;;;;;;;6.10;100.00;101210.50;11136329;26;20010;-66
2024/04/17 20:53:11;;;;;;;1999.90;999.90;;;;;;;6.01;100.00;101213.41;11136422;26;20077;-66
2024/04/17 20:58:13;;;;;;;1999.90;999.90;;;;;;;6.14;100.00;101223.34;11163496;26;20010;-66
2024/04/17 21:03:15;;;;;;;1999.90;999.90;;;;;;;6.24;100.00;101229.13;11136200;26;20000;-66
2024/04/17 21:08:19;;;;;;;1999.90;999.90;;;;;;;6.43;100.00;101231.97;11135734;26;20074;-66
2024/04/17 21:13:21;;;;;;;1999.90;999.90;;;;;;;6.38;100.00;101230.41;11163547;26;20001;-66
2024/04/17 21:18:24;;;;;;;1999.90;999.90;;;;;;;6.21;100.00;101238.78;11135382;26;20000;-66
2024/04/17 21:23:28;;;;;;;1999.90;999.90;;;;;;;6.35;100.00;101246.97;11135404;26;20054;-66
2024/04/17 21:28:31;;;;;;;1999.90;999.90;;;;;;;6.15;100.00;101245.00;11162996;26;20013;-66
2024/04/17 21:33:34;;;;;;;1999.90;999.90;;;;;;;6.27;100.00;101249.81;11162431;26;19996;-66
2024/04/17 21:38:37;;;;;;;1999.90;999.90;;;;;;;6.21;100.00;101249.16;11134669;26;20439;-66
2024/04/17 21:43:40;;;;;;;1999.90;999.90;;;;;;;6.29;100.00;101253.22;11167308;26;20081;-66
2024/04/17 21:48:42;;;;;;;1999.90;999.90;;;;;;;6.29;100.00;101261.03;11169560;26;20000;-66
2024/04/17 21:53:45;;;;;;;1999.90;999.90;;;;;;;6.18;100.00;101262.25;11170168;26;20077;-66
2024/04/17 21:58:48;;;;;;;1999.90;999.90;;;;;;;6.01;100.00;101268.84;11141605;26;20451;-66
2024/04/17 22:03:51;;;;;;;1999.90;999.90;;;;;;;5.95;100.00;101284.56;11169270;26;20375;-66